sensor_id;sensor_type;location;lat;lon;timestamp;P1;durP1;ratioP1;P2;durP2;ratioP2
53313;SDS011;39202;51.468;7.146;2022-08-19T00:00:33;2.60;;;2.50;;
53313;SDS011;39202;51.468;7.146;2022-08-19T00:05:35;2.58;;;2.38;;
53313;SDS011;39202;51.468;7.146;2022-08-19T00:10:38;2.65;;;2.45;;
53313;SDS011;39202;51.468;7.146;2022-08-19T00:15:40;2.75;;;2.55;;
53313;SDS011;39202;51.468;7.146;2022-08-19T00:20:44;2.47;;;2.38;;
53313;SDS011;39202;51.468;7.146;2022-08-19T00:25:47;2.50;;;2.40;;
53313;SDS011;39202;51.468;7.146;2022-08-19T00:30:49;2.95;;;2.75;;
53313;SDS011;39202;51.468;7.146;2022-08-19T00:35:54;2.40;;;2.30;;
53313;SDS011;39202;51.468;7.146;2022-08-19T00:40:57;2.63;;;2.53;;
53313;SDS011;39202;51.468;7.146;2022-08-19T00:45:59;3.03;;;2.55;;
53313;SDS011;39202;51.468;7.146;2022-08-19T00:51:03;2.78;;;2.67;;
53313;SDS011;39202;51.468;7.146;2022-08-19T00:56:07;2.65;;;2.53;;
53313;SDS011;39202;51.468;7.146;2022-08-19T01:01:09;2.75;;;2.58;;
53313;SDS011;39202;51.468;7.146;2022-08-19T01:06:11;2.30;;;2.20;;
53313;SDS011;39202;51.468;7.146;2022-08-19T01:11:14;2.90;;;2.70;;
53313;SDS011;39202;51.468;7.146;2022-08-19T01:16:16;2.67;;;2.50;;
53313;SDS011;39202;51.468;7.146;2022-08-19T01:21:22;2.58;;;2.47;;
53313;SDS011;39202;51.468;7.146;2022-08-19T01:26:37;2.38;;;2.28;;
53313;SDS011;39202;51.468;7.146;2022-08-19T01:31:41;2.65;;;2.45;;
53313;SDS011;39202;51.468;7.146;2022-08-19T01:36:45;2.97;;;2.78;;
53313;SDS011;39202;51.468;7.146;2022-08-19T01:41:50;2.80;;;2.60;;
53313;SDS011;39202;51.468;7.146;2022-08-19T01:46:55;2.83;;;2.60;;
53313;SDS011;39202;51.468;7.146;2022-08-19T01:51:59;2.70;;;2.50;;
53313;SDS011;39202;51.468;7.146;2022-08-19T01:57:03;2.72;;;2.53;;
53313;SDS011;39202;51.468;7.146;2022-08-19T02:02:07;2.83;;;2.65;;
53313;SDS011;39202;51.468;7.146;2022-08-19T02:07:09;2.67;;;2.47;;
53313;SDS011;39202;51.468;7.146;2022-08-19T02:12:12;2.55;;;2.45;;
53313;SDS011;39202;51.468;7.146;2022-08-19T02:17:14;2.50;;;2.35;;
53313;SDS011;39202;51.468;7.146;2022-08-19T02:22:15;2.58;;;2.38;;
53313;SDS011;39202;51.468;7.146;2022-08-19T02:27:18;2.60;;;2.40;;
53313;SDS011;39202;51.468;7.146;2022-08-19T02:32:20;3.05;;;2.85;;
53313;SDS011;39202;51.468;7.146;2022-08-19T02:37:22;2.92;;;2.72;;
53313;SDS011;39202;51.468;7.146;2022-08-19T02:42:42;3.17;;;2.97;;
53313;SDS011;39202;51.468;7.146;2022-08-19T02:47:45;2.97;;;2.78;;
53313;SDS011;39202;51.468;7.146;2022-08-19T02:52:47;3.20;;;3.00;;
53313;SDS011;39202;51.468;7.146;2022-08-19T02:57:50;3.55;;;3.35;;
53313;SDS011;39202;51.468;7.146;2022-08-19T03:02:52;3.13;;;2.92;;
53313;SDS011;39202;51.468;7.146;2022-08-19T03:07:54;3.10;;;2.90;;
53313;SDS011;39202;51.468;7.146;2022-08-19T03:12:57;3.45;;;3.17;;
53313;SDS011;39202;51.468;7.146;2022-08-19T03:17:58;3.45;;;3.20;;
53313;SDS011;39202;51.468;7.146;2022-08-19T03:23:00;3.40;;;3.20;;
53313;SDS011;39202;51.468;7.146;2022-08-19T03:28:03;3.22;;;3.03;;
53313;SDS011;39202;51.468;7.146;2022-08-19T03:33:05;3.30;;;3.10;;
53313;SDS011;39202;51.468;7.146;2022-08-19T03:38:07;3.88;;;2.90;;
53313;SDS011;39202;51.468;7.146;2022-08-19T03:43:10;3.47;;;3.28;;
53313;SDS011;39202;51.468;7.146;2022-08-19T03:48:12;3.17;;;2.97;;
53313;SDS011;39202;51.468;7.146;2022-08-19T03:53:14;3.20;;;3.00;;
53313;SDS011;39202;51.468;7.146;2022-08-19T03:58:17;3.38;;;3.00;;
53313;SDS011;39202;51.468;7.146;2022-08-19T04:03:18;3.22;;;3.03;;
53313;SDS011;39202;51.468;7.146;2022-08-19T04:08:20;3.20;;;2.95;;
53313;SDS011;39202;51.468;7.146;2022-08-19T04:13:23;3.15;;;2.95;;
53313;SDS011;39202;51.468;7.146;2022-08-19T04:18:25;3.17;;;2.97;;
53313;SDS011;39202;51.468;7.146;2022-08-19T04:23:29;3.03;;;2.72;;
53313;SDS011;39202;51.468;7.146;2022-08-19T04:28:33;3.05;;;2.85;;
53313;SDS011;39202;51.468;7.146;2022-08-19T04:33:35;3.03;;;2.83;;
53313;SDS011;39202;51.468;7.146;2022-08-19T04:38:37;3.50;;;3.30;;
53313;SDS011;39202;51.468;7.146;2022-08-19T04:43:40;3.35;;;3.08;;
53313;SDS011;39202;51.468;7.146;2022-08-19T04:48:44;3.95;;;3.17;;
53313;SDS011;39202;51.468;7.146;2022-08-19T04:53:45;6.78;;;4.32;;
53313;SDS011;39202;51.468;7.146;2022-08-19T04:58:49;9.18;;;4.47;;
53313;SDS011;39202;51.468;7.146;2022-08-19T05:03:51;7.93;;;4.68;;
53313;SDS011;39202;51.468;7.146;2022-08-19T05:08:53;7.50;;;4.68;;
53313;SDS011;39202;51.468;7.146;2022-08-19T05:13:57;5.80;;;3.95;;
53313;SDS011;39202;51.468;7.146;2022-08-19T05:18:59;4.30;;;3.53;;
53313;SDS011;39202;51.468;7.146;2022-08-19T05:24:18;4.53;;;3.50;;
53313;SDS011;39202;51.468;7.146;2022-08-19T05:29:24;3.78;;;3.45;;
53313;SDS011;39202;51.468;7.146;2022-08-19T05:34:27;3.78;;;3.10;;
53313;SDS011;39202;51.468;7.146;2022-08-19T05:39:30;3.20;;;3.00;;
53313;SDS011;39202;51.468;7.146;2022-08-19T05:44:36;4.43;;;3.45;;
53313;SDS011;39202;51.468;7.146;2022-08-19T05:49:39;3.08;;;2.88;;
53313;SDS011;39202;51.468;7.146;2022-08-19T05:54:41;3.42;;;3.13;;
53313;SDS011;39202;51.468;7.146;2022-08-19T05:59:46;3.42;;;3.22;;
53313;SDS011;39202;51.468;7.146;2022-08-19T06:04:48;3.03;;;2.83;;
53313;SDS011;39202;51.468;7.146;2022-08-19T06:09:50;3.50;;;3.20;;
53313;SDS011;39202;51.468;7.146;2022-08-19T06:14:53;3.20;;;2.90;;
53313;SDS011;39202;51.468;7.146;2022-08-19T06:19:55;3.05;;;2.85;;
53313;SDS011;39202;51.468;7.146;2022-08-19T06:24:58;3.40;;;3.10;;
53313;SDS011;39202;51.468;7.146;2022-08-19T06:30:01;3.08;;;2.88;;
53313;SDS011;39202;51.468;7.146;2022-08-19T06:35:04;2.85;;;2.65;;
53313;SDS011;39202;51.468;7.146;2022-08-19T06:40:06;3.03;;;2.83;;
53313;SDS011;39202;51.468;7.146;2022-08-19T06:45:12;3.10;;;2.80;;
53313;SDS011;39202;51.468;7.146;2022-08-19T06:50:14;3.22;;;3.00;;
53313;SDS011;39202;51.468;7.146;2022-08-19T06:55:16;3.28;;;3.00;;
53313;SDS011;39202;51.468;7.146;2022-08-19T07:00:19;3.35;;;3.15;;
53313;SDS011;39202;51.468;7.146;2022-08-19T07:05:21;3.15;;;2.85;;
53313;SDS011;39202;51.468;7.146;2022-08-19T07:10:23;3.25;;;3.05;;
53313;SDS011;39202;51.468;7.146;2022-08-19T07:15:26;3.33;;;3.03;;
53313;SDS011;39202;51.468;7.146;2022-08-19T07:20:28;2.85;;;2.70;;
53313;SDS011;39202;51.468;7.146;2022-08-19T07:25:30;3.22;;;2.92;;
53313;SDS011;39202;51.468;7.146;2022-08-19T07:30:35;3.10;;;2.90;;
53313;SDS011;39202;51.468;7.146;2022-08-19T07:35:37;2.90;;;2.70;;
53313;SDS011;39202;51.468;7.146;2022-08-19T07:40:39;4.78;;;3.35;;
53313;SDS011;39202;51.468;7.146;2022-08-19T07:45:42;3.40;;;3.10;;
53313;SDS011;39202;51.468;7.146;2022-08-19T07:50:44;3.50;;;3.20;;
53313;SDS011;39202;51.468;7.146;2022-08-19T07:55:46;2.85;;;2.58;;
53313;SDS011;39202;51.468;7.146;2022-08-19T08:00:50;4.50;;;3.45;;
53313;SDS011;39202;51.468;7.146;2022-08-19T08:05:52;3.80;;;3.50;;
53313;SDS011;39202;51.468;7.146;2022-08-19T08:11:11;3.75;;;3.38;;
53313;SDS011;39202;51.468;7.146;2022-08-19T08:16:15;3.72;;;3.42;;
53313;SDS011;39202;51.468;7.146;2022-08-19T08:21:16;4.20;;;3.85;;
53313;SDS011;39202;51.468;7.146;2022-08-19T08:26:18;4.25;;;3.95;;
53313;SDS011;39202;51.468;7.146;2022-08-19T08:31:21;3.83;;;3.55;;
53313;SDS011;39202;51.468;7.146;2022-08-19T08:36:23;4.50;;;4.10;;
53313;SDS011;39202;51.468;7.146;2022-08-19T08:41:27;4.60;;;4.30;;
53313;SDS011;39202;51.468;7.146;2022-08-19T08:46:35;7.78;;;6.45;;
53313;SDS011;39202;51.468;7.146;2022-08-19T08:51:42;8.68;;;6.03;;
53313;SDS011;39202;51.468;7.146;2022-08-19T08:56:45;8.18;;;6.93;;
53313;SDS011;39202;51.468;7.146;2022-08-19T09:01:51;6.28;;;5.72;;
53313;SDS011;39202;51.468;7.146;2022-08-19T09:06:54;5.63;;;5.13;;
53313;SDS011;39202;51.468;7.146;2022-08-19T09:12:09;6.22;;;5.63;;
53313;SDS011;39202;51.468;7.146;2022-08-19T09:17:23;7.25;;;6.53;;
53313;SDS011;39202;51.468;7.146;2022-08-19T09:22:30;5.72;;;5.20;;
53313;SDS011;39202;51.468;7.146;2022-08-19T09:27:32;9.98;;;9.07;;
53313;SDS011;39202;51.468;7.146;2022-08-19T09:32:37;10.02;;;9.13;;
53313;SDS011;39202;51.468;7.146;2022-08-19T09:37:41;8.45;;;7.53;;
53313;SDS011;39202;51.468;7.146;2022-08-19T09:42:44;8.32;;;6.90;;
53313;SDS011;39202;51.468;7.146;2022-08-19T09:47:48;7.85;;;7.15;;
53313;SDS011;39202;51.468;7.146;2022-08-19T09:52:51;7.03;;;6.43;;
53313;SDS011;39202;51.468;7.146;2022-08-19T09:57:56;7.93;;;7.10;;
53313;SDS011;39202;51.468;7.146;2022-08-19T10:03:00;7.38;;;6.75;;
53313;SDS011;39202;51.468;7.146;2022-08-19T10:08:01;6.22;;;5.72;;
53313;SDS011;39202;51.468;7.146;2022-08-19T10:13:03;5.85;;;5.35;;
53313;SDS011;39202;51.468;7.146;2022-08-19T10:18:07;6.13;;;5.55;;
53313;SDS011;39202;51.468;7.146;2022-08-19T10:23:09;6.10;;;5.50;;
53313;SDS011;39202;51.468;7.146;2022-08-19T10:28:11;6.18;;;5.60;;
53313;SDS011;39202;51.468;7.146;2022-08-19T10:33:14;5.95;;;5.40;;
53313;SDS011;39202;51.468;7.146;2022-08-19T10:38:16;6.35;;;5.35;;
53313;SDS011;39202;51.468;7.146;2022-08-19T10:43:17;6.15;;;5.72;;
53313;SDS011;39202;51.468;7.146;2022-08-19T10:48:20;5.72;;;5.30;;
53313;SDS011;39202;51.468;7.146;2022-08-19T10:53:22;7.38;;;6.47;;
53313;SDS011;39202;51.468;7.146;2022-08-19T10:58:25;7.30;;;6.70;;
53313;SDS011;39202;51.468;7.146;2022-08-19T11:03:28;7.60;;;6.97;;
53313;SDS011;39202;51.468;7.146;2022-08-19T11:08:30;7.22;;;6.63;;
53313;SDS011;39202;51.468;7.146;2022-08-19T11:13:34;7.10;;;6.53;;
53313;SDS011;39202;51.468;7.146;2022-08-19T11:18:39;6.85;;;6.25;;
53313;SDS011;39202;51.468;7.146;2022-08-19T11:23:43;6.45;;;5.95;;
53313;SDS011;39202;51.468;7.146;2022-08-19T11:28:46;8.52;;;7.07;;
53313;SDS011;39202;51.468;7.146;2022-08-19T11:33:49;6.55;;;6.00;;
53313;SDS011;39202;51.468;7.146;2022-08-19T11:38:52;7.07;;;6.47;;
53313;SDS011;39202;51.468;7.146;2022-08-19T11:43:54;7.05;;;6.45;;
53313;SDS011;39202;51.468;7.146;2022-08-19T11:48:58;6.63;;;6.13;;
53313;SDS011;39202;51.468;7.146;2022-08-19T11:54:04;5.65;;;5.18;;
53313;SDS011;39202;51.468;7.146;2022-08-19T11:59:06;5.70;;;5.30;;
53313;SDS011;39202;51.468;7.146;2022-08-19T12:04:10;5.07;;;4.63;;
53313;SDS011;39202;51.468;7.146;2022-08-19T12:09:12;6.35;;;5.75;;
53313;SDS011;39202;51.468;7.146;2022-08-19T12:14:15;5.47;;;4.97;;
53313;SDS011;39202;51.468;7.146;2022-08-19T12:19:19;4.97;;;4.68;;
53313;SDS011;39202;51.468;7.146;2022-08-19T12:24:21;5.25;;;4.63;;
53313;SDS011;39202;51.468;7.146;2022-08-19T12:29:24;4.80;;;4.40;;
53313;SDS011;39202;51.468;7.146;2022-08-19T12:34:31;4.30;;;4.03;;
53313;SDS011;39202;51.468;7.146;2022-08-19T12:39:34;4.30;;;3.97;;
53313;SDS011;39202;51.468;7.146;2022-08-19T12:44:37;3.70;;;3.50;;
53313;SDS011;39202;51.468;7.146;2022-08-19T12:49:42;3.80;;;3.60;;
53313;SDS011;39202;51.468;7.146;2022-08-19T12:54:46;3.65;;;3.42;;
53313;SDS011;39202;51.468;7.146;2022-08-19T12:59:48;5.47;;;3.88;;
53313;SDS011;39202;51.468;7.146;2022-08-19T13:04:54;4.30;;;3.90;;
53313;SDS011;39202;51.468;7.146;2022-08-19T13:09:56;4.07;;;3.72;;
53313;SDS011;39202;51.468;7.146;2022-08-19T13:14:58;4.10;;;3.70;;
53313;SDS011;39202;51.468;7.146;2022-08-19T13:20:02;4.05;;;3.65;;
53313;SDS011;39202;51.468;7.146;2022-08-19T13:25:05;3.67;;;3.28;;
53313;SDS011;39202;51.468;7.146;2022-08-19T13:30:09;3.92;;;3.63;;
53313;SDS011;39202;51.468;7.146;2022-08-19T13:35:31;5.03;;;3.65;;
53313;SDS011;39202;51.468;7.146;2022-08-19T13:40:33;3.45;;;3.25;;
53313;SDS011;39202;51.468;7.146;2022-08-19T13:45:35;4.15;;;3.75;;
53313;SDS011;39202;51.468;7.146;2022-08-19T13:50:39;3.38;;;3.15;;
53313;SDS011;39202;51.468;7.146;2022-08-19T13:55:43;6.45;;;3.40;;
53313;SDS011;39202;51.468;7.146;2022-08-19T14:00:45;3.67;;;3.35;;
53313;SDS011;39202;51.468;7.146;2022-08-19T14:05:49;4.05;;;3.42;;
53313;SDS011;39202;51.468;7.146;2022-08-19T14:10:51;3.60;;;3.10;;
53313;SDS011;39202;51.468;7.146;2022-08-19T14:15:52;3.58;;;3.28;;
53313;SDS011;39202;51.468;7.146;2022-08-19T14:20:56;3.35;;;3.13;;
53313;SDS011;39202;51.468;7.146;2022-08-19T14:26:04;3.35;;;3.10;;
53313;SDS011;39202;51.468;7.146;2022-08-19T14:31:06;3.38;;;3.08;;
53313;SDS011;39202;51.468;7.146;2022-08-19T14:36:09;2.88;;;2.67;;
53313;SDS011;39202;51.468;7.146;2022-08-19T14:41:12;3.03;;;2.80;;
53313;SDS011;39202;51.468;7.146;2022-08-19T14:46:17;3.15;;;2.92;;
53313;SDS011;39202;51.468;7.146;2022-08-19T14:51:23;4.43;;;3.17;;
53313;SDS011;39202;51.468;7.146;2022-08-19T14:56:27;3.47;;;3.13;;
53313;SDS011;39202;51.468;7.146;2022-08-19T15:01:30;4.13;;;3.60;;
53313;SDS011;39202;51.468;7.146;2022-08-19T15:06:33;3.78;;;3.47;;
53313;SDS011;39202;51.468;7.146;2022-08-19T15:11:35;4.68;;;3.15;;
53313;SDS011;39202;51.468;7.146;2022-08-19T15:16:38;3.55;;;3.35;;
53313;SDS011;39202;51.468;7.146;2022-08-19T15:21:43;4.10;;;3.10;;
53313;SDS011;39202;51.468;7.146;2022-08-19T15:26:44;3.72;;;3.22;;
53313;SDS011;39202;51.468;7.146;2022-08-19T15:31:46;3.60;;;3.30;;
53313;SDS011;39202;51.468;7.146;2022-08-19T15:36:49;4.40;;;4.10;;
53313;SDS011;39202;51.468;7.146;2022-08-19T15:41:51;4.63;;;4.22;;
53313;SDS011;39202;51.468;7.146;2022-08-19T15:46:53;4.35;;;3.90;;
53313;SDS011;39202;51.468;7.146;2022-08-19T15:51:56;4.32;;;3.83;;
53313;SDS011;39202;51.468;7.146;2022-08-19T15:56:59;4.05;;;3.65;;
53313;SDS011;39202;51.468;7.146;2022-08-19T16:02:18;3.92;;;3.65;;
53313;SDS011;39202;51.468;7.146;2022-08-19T16:07:40;3.75;;;3.45;;
53313;SDS011;39202;51.468;7.146;2022-08-19T16:12:42;3.65;;;3.35;;
53313;SDS011;39202;51.468;7.146;2022-08-19T16:17:44;4.25;;;3.60;;
53313;SDS011;39202;51.468;7.146;2022-08-19T16:22:48;3.15;;;2.92;;
53313;SDS011;39202;51.468;7.146;2022-08-19T16:27:50;4.22;;;3.13;;
53313;SDS011;39202;51.468;7.146;2022-08-19T16:32:53;3.17;;;2.90;;
53313;SDS011;39202;51.468;7.146;2022-08-19T16:37:56;3.50;;;3.20;;
53313;SDS011;39202;51.468;7.146;2022-08-19T16:42:58;5.43;;;3.45;;
53313;SDS011;39202;51.468;7.146;2022-08-19T16:48:02;3.58;;;3.25;;
53313;SDS011;39202;51.468;7.146;2022-08-19T16:53:06;4.75;;;3.67;;
53313;SDS011;39202;51.468;7.146;2022-08-19T16:58:08;4.13;;;3.80;;
53313;SDS011;39202;51.468;7.146;2022-08-19T17:03:10;4.05;;;3.65;;
53313;SDS011;39202;51.468;7.146;2022-08-19T17:08:13;4.03;;;3.70;;
53313;SDS011;39202;51.468;7.146;2022-08-19T17:13:16;5.50;;;4.07;;
53313;SDS011;39202;51.468;7.146;2022-08-19T17:18:18;4.28;;;3.97;;
53313;SDS011;39202;51.468;7.146;2022-08-19T17:23:22;4.63;;;4.22;;
53313;SDS011;39202;51.468;7.146;2022-08-19T17:28:26;5.60;;;4.43;;
53313;SDS011;39202;51.468;7.146;2022-08-19T17:33:29;5.00;;;4.55;;
53313;SDS011;39202;51.468;7.146;2022-08-19T17:38:33;4.55;;;4.25;;
53313;SDS011;39202;51.468;7.146;2022-08-19T17:43:36;5.13;;;4.72;;
53313;SDS011;39202;51.468;7.146;2022-08-19T17:48:39;4.72;;;4.32;;
53313;SDS011;39202;51.468;7.146;2022-08-19T17:53:43;5.63;;;4.65;;
53313;SDS011;39202;51.468;7.146;2022-08-19T17:58:45;5.32;;;4.82;;
53313;SDS011;39202;51.468;7.146;2022-08-19T18:03:48;5.30;;;4.88;;
53313;SDS011;39202;51.468;7.146;2022-08-19T18:08:51;5.13;;;4.63;;
53313;SDS011;39202;51.468;7.146;2022-08-19T18:13:52;5.38;;;4.80;;
53313;SDS011;39202;51.468;7.146;2022-08-19T18:18:54;5.22;;;4.70;;
53313;SDS011;39202;51.468;7.146;2022-08-19T18:23:57;5.13;;;4.70;;
53313;SDS011;39202;51.468;7.146;2022-08-19T18:28:59;5.70;;;5.20;;
53313;SDS011;39202;51.468;7.146;2022-08-19T18:34:01;5.35;;;4.57;;
53313;SDS011;39202;51.468;7.146;2022-08-19T18:39:05;5.45;;;4.90;;
53313;SDS011;39202;51.468;7.146;2022-08-19T18:44:24;4.78;;;4.38;;
53313;SDS011;39202;51.468;7.146;2022-08-19T18:49:43;4.55;;;3.80;;
53313;SDS011;39202;51.468;7.146;2022-08-19T18:54:46;4.35;;;3.95;;
53313;SDS011;39202;51.468;7.146;2022-08-19T18:59:48;4.45;;;4.05;;
53313;SDS011;39202;51.468;7.146;2022-08-19T19:04:51;4.47;;;4.05;;
53313;SDS011;39202;51.468;7.146;2022-08-19T19:09:55;4.55;;;4.00;;
53313;SDS011;39202;51.468;7.146;2022-08-19T19:14:57;4.20;;;3.80;;
53313;SDS011;39202;51.468;7.146;2022-08-19T19:20:03;4.22;;;3.92;;
53313;SDS011;39202;51.468;7.146;2022-08-19T19:25:07;4.43;;;4.03;;
53313;SDS011;39202;51.468;7.146;2022-08-19T19:30:10;4.30;;;4.00;;
53313;SDS011;39202;51.468;7.146;2022-08-19T19:35:12;4.00;;;3.70;;
53313;SDS011;39202;51.468;7.146;2022-08-19T19:40:16;4.78;;;4.38;;
53313;SDS011;39202;51.468;7.146;2022-08-19T19:45:17;4.40;;;4.10;;
53313;SDS011;39202;51.468;7.146;2022-08-19T19:50:20;4.70;;;4.30;;
53313;SDS011;39202;51.468;7.146;2022-08-19T19:55:23;4.38;;;4.07;;
53313;SDS011;39202;51.468;7.146;2022-08-19T20:00:26;4.68;;;4.32;;
53313;SDS011;39202;51.468;7.146;2022-08-19T20:05:27;4.70;;;4.22;;
53313;SDS011;39202;51.468;7.146;2022-08-19T20:10:31;4.43;;;4.03;;
53313;SDS011;39202;51.468;7.146;2022-08-19T20:15:33;4.28;;;3.97;;
53313;SDS011;39202;51.468;7.146;2022-08-19T20:20:35;4.25;;;3.95;;
53313;SDS011;39202;51.468;7.146;2022-08-19T20:25:38;4.30;;;4.00;;
53313;SDS011;39202;51.468;7.146;2022-08-19T20:30:40;3.95;;;3.65;;
53313;SDS011;39202;51.468;7.146;2022-08-19T20:35:42;3.80;;;3.60;;
53313;SDS011;39202;51.468;7.146;2022-08-19T20:40:46;3.72;;;3.42;;
53313;SDS011;39202;51.468;7.146;2022-08-19T20:45:48;3.85;;;3.55;;
53313;SDS011;39202;51.468;7.146;2022-08-19T20:50:50;3.78;;;3.50;;
53313;SDS011;39202;51.468;7.146;2022-08-19T20:55:53;4.07;;;3.78;;
53313;SDS011;39202;51.468;7.146;2022-08-19T21:00:56;3.80;;;3.50;;
53313;SDS011;39202;51.468;7.146;2022-08-19T21:06:00;3.78;;;3.47;;
53313;SDS011;39202;51.468;7.146;2022-08-19T21:11:04;3.63;;;3.33;;
53313;SDS011;39202;51.468;7.146;2022-08-19T21:16:06;3.70;;;3.40;;
53313;SDS011;39202;51.468;7.146;2022-08-19T21:21:08;3.50;;;3.20;;
53313;SDS011;39202;51.468;7.146;2022-08-19T21:26:11;3.22;;;3.03;;
53313;SDS011;39202;51.468;7.146;2022-08-19T21:31:13;3.08;;;2.88;;
53313;SDS011;39202;51.468;7.146;2022-08-19T21:36:16;2.50;;;2.40;;
53313;SDS011;39202;51.468;7.146;2022-08-19T21:41:19;2.63;;;2.42;;
53313;SDS011;39202;51.468;7.146;2022-08-19T21:46:21;2.80;;;2.60;;
53313;SDS011;39202;51.468;7.146;2022-08-19T21:51:23;2.90;;;2.70;;
53313;SDS011;39202;51.468;7.146;2022-08-19T21:56:26;2.90;;;2.70;;
53313;SDS011;39202;51.468;7.146;2022-08-19T22:01:28;3.00;;;2.70;;
53313;SDS011;39202;51.468;7.146;2022-08-19T22:06:29;2.92;;;2.72;;
53313;SDS011;39202;51.468;7.146;2022-08-19T22:11:32;2.65;;;2.55;;
53313;SDS011;39202;51.468;7.146;2022-08-19T22:16:34;3.00;;;2.80;;
53313;SDS011;39202;51.468;7.146;2022-08-19T22:21:37;2.90;;;2.70;;
53313;SDS011;39202;51.468;7.146;2022-08-19T22:26:40;3.20;;;2.90;;
53313;SDS011;39202;51.468;7.146;2022-08-19T22:31:42;3.20;;;2.90;;
53313;SDS011;39202;51.468;7.146;2022-08-19T22:36:44;2.97;;;2.78;;
53313;SDS011;39202;51.468;7.146;2022-08-19T22:41:47;3.25;;;2.95;;
53313;SDS011;39202;51.468;7.146;2022-08-19T22:46:48;3.00;;;2.80;;
53313;SDS011;39202;51.468;7.146;2022-08-19T22:51:50;3.15;;;2.95;;
53313;SDS011;39202;51.468;7.146;2022-08-19T22:57:11;3.17;;;2.88;;
53313;SDS011;39202;51.468;7.146;2022-08-19T23:02:16;2.92;;;2.72;;
53313;SDS011;39202;51.468;7.146;2022-08-19T23:07:20;3.70;;;3.13;;
53313;SDS011;39202;51.468;7.146;2022-08-19T23:12:27;3.92;;;3.53;;
53313;SDS011;39202;51.468;7.146;2022-08-19T23:17:31;3.38;;;3.15;;
53313;SDS011;39202;51.468;7.146;2022-08-19T23:22:36;3.72;;;3.42;;
53313;SDS011;39202;51.468;7.146;2022-08-19T23:27:39;4.05;;;3.65;;
53313;SDS011;39202;51.468;7.146;2022-08-19T23:33:00;4.05;;;3.72;;
53313;SDS011;39202;51.468;7.146;2022-08-19T23:38:06;3.75;;;3.45;;
53313;SDS011;39202;51.468;7.146;2022-08-19T23:43:09;3.75;;;3.45;;
53313;SDS011;39202;51.468;7.146;2022-08-19T23:48:11;3.80;;;3.50;;
53313;SDS011;39202;51.468;7.146;2022-08-19T23:53:13;3.50;;;3.15;;
53313;SDS011;39202;51.468;7.146;2022-08-19T23:58:17;3.95;;;3.65;;
